Terminal Aerodrome Forecast
Issued by NWS

Home | Current Version | Previous Version | Text Only | Print | Product List | Glossary On
Versions: 1 2 3 4 5 6 7 8 9 10 11 12 13 14 15 16 17 18 19 20 21 22 23 24
000
FTUS44 KOUN 300520
TAFWWR
TAF
KWWR 300520Z 3006/3106 15006KT P6SM VCSH OVC070
      TEMPO 3008/3012 3SM TSRA BR OVC040CB
     FM301200 11010KT 5SM -RA OVC030
      TEMPO 3014/3018 3SM TSRA OVC015CB
     FM302000 07010G15KT 4SM -RA BR OVC015=

USA.gov is the U.S. government's official web portal to all federal, state and local government web resources and services.